sensor_id;sensor_type;location;lat;lon;timestamp;pressure;altitude;pressure_sealevel;temperature;humidity
28683;BME280;15862;43.062;25.626;2023-02-01T00:01:09;100144.94;;;2.32;100.00
28683;BME280;15862;43.062;25.626;2023-02-01T00:03:35;100171.06;;;2.37;100.00
28683;BME280;15862;43.062;25.626;2023-02-01T00:06:00;100155.72;;;2.39;100.00
28683;BME280;15862;43.062;25.626;2023-02-01T00:08:26;100162.56;;;2.37;100.00
28683;BME280;15862;43.062;25.626;2023-02-01T00:11:09;100145.13;;;2.26;100.00
28683;BME280;15862;43.062;25.626;2023-02-01T00:13:37;100162.97;;;2.26;100.00
28683;BME280;15862;43.062;25.626;2023-02-01T00:16:08;100172.34;;;2.26;100.00
28683;BME280;15862;43.062;25.626;2023-02-01T00:18:34;100171.50;;;2.25;100.00
28683;BME280;15862;43.062;25.626;2023-02-01T00:20:59;100172.00;;;2.12;100.00
28683;BME280;15862;43.062;25.626;2023-02-01T00:23:25;100177.03;;;2.14;100.00
28683;BME280;15862;43.062;25.626;2023-02-01T00:25:51;100165.31;;;2.10;100.00
28683;BME280;15862;43.062;25.626;2023-02-01T00:28:16;100178.03;;;2.10;100.00
28683;BME280;15862;43.062;25.626;2023-02-01T00:30:42;100167.78;;;2.11;100.00
28683;BME280;15862;43.062;25.626;2023-02-01T00:33:07;100177.88;;;2.14;100.00
28683;BME280;15862;43.062;25.626;2023-02-01T00:35:35;100176.22;;;2.13;100.00
28683;BME280;15862;43.062;25.626;2023-02-01T00:38:02;100178.75;;;2.13;100.00
28683;BME280;15862;43.062;25.626;2023-02-01T00:40:27;100150.22;;;2.04;100.00
28683;BME280;15862;43.062;25.626;2023-02-01T00:42:53;100164.75;;;2.25;100.00
28683;BME280;15862;43.062;25.626;2023-02-01T00:45:19;100153.44;;;2.09;100.00
28683;BME280;15862;43.062;25.626;2023-02-01T00:47:44;100163.41;;;2.15;100.00
28683;BME280;15862;43.062;25.626;2023-02-01T00:50:10;100162.63;;;2.13;100.00
28683;BME280;15862;43.062;25.626;2023-02-01T00:52:35;100151.88;;;2.05;100.00
28683;BME280;15862;43.062;25.626;2023-02-01T00:55:01;100166.84;;;2.14;100.00
28683;BME280;15862;43.062;25.626;2023-02-01T00:57:26;100157.53;;;2.13;100.00
28683;BME280;15862;43.062;25.626;2023-02-01T00:59:52;100164.53;;;2.08;100.00
28683;BME280;15862;43.062;25.626;2023-02-01T01:02:17;100151.16;;;2.01;100.00
28683;BME280;15862;43.062;25.626;2023-02-01T01:04:42;100154.84;;;2.17;100.00
28683;BME280;15862;43.062;25.626;2023-02-01T01:07:08;100153.00;;;2.21;100.00
28683;BME280;15862;43.062;25.626;2023-02-01T01:09:34;100162.25;;;2.23;100.00
28683;BME280;15862;43.062;25.626;2023-02-01T01:12:00;100151.34;;;2.20;100.00
28683;BME280;15862;43.062;25.626;2023-02-01T01:14:28;100154.56;;;2.25;100.00
28683;BME280;15862;43.062;25.626;2023-02-01T01:16:54;100158.94;;;2.21;100.00
28683;BME280;15862;43.062;25.626;2023-02-01T01:19:20;100152.69;;;2.29;100.00
28683;BME280;15862;43.062;25.626;2023-02-01T01:21:45;100141.53;;;2.32;100.00
28683;BME280;15862;43.062;25.626;2023-02-01T01:24:10;100147.22;;;2.61;100.00
28683;BME280;15862;43.062;25.626;2023-02-01T01:26:36;100142.00;;;2.64;100.00
28683;BME280;15862;43.062;25.626;2023-02-01T01:29:02;100150.13;;;2.74;100.00
28683;BME280;15862;43.062;25.626;2023-02-01T01:31:28;100138.09;;;2.77;100.00
28683;BME280;15862;43.062;25.626;2023-02-01T01:33:56;100133.66;;;2.82;100.00
28683;BME280;15862;43.062;25.626;2023-02-01T01:36:22;100132.00;;;2.81;100.00
28683;BME280;15862;43.062;25.626;2023-02-01T01:38:48;100132.56;;;2.88;100.00
28683;BME280;15862;43.062;25.626;2023-02-01T01:41:29;100130.22;;;2.83;100.00
28683;BME280;15862;43.062;25.626;2023-02-01T01:44:01;100129.97;;;2.89;100.00
28683;BME280;15862;43.062;25.626;2023-02-01T01:46:37;100136.63;;;2.93;100.00
28683;BME280;15862;43.062;25.626;2023-02-01T01:49:09;100136.63;;;2.93;100.00
28683;BME280;15862;43.062;25.626;2023-02-01T01:51:40;100145.16;;;2.92;100.00
28683;BME280;15862;43.062;25.626;2023-02-01T01:54:13;100144.19;;;2.95;100.00
28683;BME280;15862;43.062;25.626;2023-02-01T01:56:42;100135.78;;;2.93;100.00
28683;BME280;15862;43.062;25.626;2023-02-01T01:59:09;100141.72;;;2.93;100.00
28683;BME280;15862;43.062;25.626;2023-02-01T02:01:34;100151.09;;;2.93;100.00
28683;BME280;15862;43.062;25.626;2023-02-01T02:04:00;100154.34;;;2.96;100.00
28683;BME280;15862;43.062;25.626;2023-02-01T02:09:17;100153.69;;;2.91;100.00
28683;BME280;15862;43.062;25.626;2023-02-01T02:11:43;100155.19;;;2.97;100.00
28683;BME280;15862;43.062;25.626;2023-02-01T02:14:11;100146.81;;;2.93;100.00
28683;BME280;15862;43.062;25.626;2023-02-01T02:16:45;100154.63;;;2.89;100.00
28683;BME280;15862;43.062;25.626;2023-02-01T02:27:43;100162.53;;;2.61;100.00
28683;BME280;15862;43.062;25.626;2023-02-01T02:38:47;100150.38;;;2.45;100.00
28683;BME280;15862;43.062;25.626;2023-02-01T02:41:28;100135.25;;;2.40;100.00
28683;BME280;15862;43.062;25.626;2023-02-01T02:47:23;100129.50;;;2.35;100.00
28683;BME280;15862;43.062;25.626;2023-02-01T02:49:55;100154.50;;;2.49;100.00
28683;BME280;15862;43.062;25.626;2023-02-01T02:53:02;100146.88;;;2.47;100.00
28683;BME280;15862;43.062;25.626;2023-02-01T02:55:50;100151.88;;;2.50;100.00
28683;BME280;15862;43.062;25.626;2023-02-01T02:58:16;100136.69;;;2.47;100.00
28683;BME280;15862;43.062;25.626;2023-02-01T03:01:01;100147.88;;;2.66;100.00
28683;BME280;15862;43.062;25.626;2023-02-01T03:03:48;100152.84;;;2.69;100.00
28683;BME280;15862;43.062;25.626;2023-02-01T03:06:34;100134.50;;;2.61;100.00
28683;BME280;15862;43.062;25.626;2023-02-01T03:09:01;100137.53;;;2.69;100.00
28683;BME280;15862;43.062;25.626;2023-02-01T03:11:30;100139.81;;;2.77;100.00
28683;BME280;15862;43.062;25.626;2023-02-01T03:14:18;100149.91;;;2.80;100.00
28683;BME280;15862;43.062;25.626;2023-02-01T03:16:59;100155.59;;;2.86;100.00
28683;BME280;15862;43.062;25.626;2023-02-01T03:19:31;100149.25;;;2.96;100.00
28683;BME280;15862;43.062;25.626;2023-02-01T03:22:07;100151.81;;;2.96;100.00
28683;BME280;15862;43.062;25.626;2023-02-01T03:27:13;100163.59;;;2.99;100.00
28683;BME280;15862;43.062;25.626;2023-02-01T03:30:11;100163.38;;;3.04;100.00
28683;BME280;15862;43.062;25.626;2023-02-01T03:32:44;100157.63;;;3.00;100.00
28683;BME280;15862;43.062;25.626;2023-02-01T03:41:03;100154.22;;;2.99;100.00
28683;BME280;15862;43.062;25.626;2023-02-01T03:43:46;100147.06;;;2.87;100.00
28683;BME280;15862;43.062;25.626;2023-02-01T03:46:21;100163.69;;;2.97;100.00
28683;BME280;15862;43.062;25.626;2023-02-01T03:48:49;100162.00;;;2.96;100.00
28683;BME280;15862;43.062;25.626;2023-02-01T03:51:18;100167.84;;;2.98;100.00
28683;BME280;15862;43.062;25.626;2023-02-01T03:53:45;100166.88;;;3.02;100.00
28683;BME280;15862;43.062;25.626;2023-02-01T03:56:15;100153.81;;;2.88;100.00
28683;BME280;15862;43.062;25.626;2023-02-01T03:58:41;100170.31;;;3.01;100.00
28683;BME280;15862;43.062;25.626;2023-02-01T04:01:06;100146.09;;;2.90;100.00
28683;BME280;15862;43.062;25.626;2023-02-01T04:03:32;100161.16;;;2.96;100.00
28683;BME280;15862;43.062;25.626;2023-02-01T04:05:57;100167.13;;;2.96;100.00
28683;BME280;15862;43.062;25.626;2023-02-01T04:08:23;100147.16;;;2.84;100.00
28683;BME280;15862;43.062;25.626;2023-02-01T04:10:49;100159.56;;;2.93;100.00
28683;BME280;15862;43.062;25.626;2023-02-01T04:13:14;100162.25;;;2.90;100.00
28683;BME280;15862;43.062;25.626;2023-02-01T04:15:40;100169.13;;;2.88;100.00
28683;BME280;15862;43.062;25.626;2023-02-01T04:18:05;100163.38;;;2.83;100.00
28683;BME280;15862;43.062;25.626;2023-02-01T04:20:31;100153.56;;;2.73;100.00
28683;BME280;15862;43.062;25.626;2023-02-01T04:22:57;100169.56;;;2.76;100.00
28683;BME280;15862;43.062;25.626;2023-02-01T04:25:22;100173.94;;;2.74;100.00
28683;BME280;15862;43.062;25.626;2023-02-01T04:27:48;100174.91;;;2.70;100.00
28683;BME280;15862;43.062;25.626;2023-02-01T04:30:14;100170.22;;;2.60;100.00
28683;BME280;15862;43.062;25.626;2023-02-01T04:32:40;100166.06;;;2.57;100.00
28683;BME280;15862;43.062;25.626;2023-02-01T04:35:06;100170.53;;;2.51;100.00
28683;BME280;15862;43.062;25.626;2023-02-01T04:37:32;100164.78;;;2.46;100.00
28683;BME280;15862;43.062;25.626;2023-02-01T04:39:57;100160.75;;;2.40;100.00
28683;BME280;15862;43.062;25.626;2023-02-01T04:42:23;100170.41;;;2.32;100.00
28683;BME280;15862;43.062;25.626;2023-02-01T04:44:48;100162.97;;;2.26;100.00
28683;BME280;15862;43.062;25.626;2023-02-01T04:47:14;100178.31;;;2.25;100.00
28683;BME280;15862;43.062;25.626;2023-02-01T04:49:40;100173.38;;;2.21;100.00
28683;BME280;15862;43.062;25.626;2023-02-01T04:52:06;100168.91;;;2.04;100.00
28683;BME280;15862;43.062;25.626;2023-02-01T04:54:31;100167.13;;;2.06;100.00
28683;BME280;15862;43.062;25.626;2023-02-01T04:56:57;100185.56;;;1.88;100.00
28683;BME280;15862;43.062;25.626;2023-02-01T04:59:22;100147.19;;;1.46;100.00
28683;BME280;15862;43.062;25.626;2023-02-01T05:01:47;100182.16;;;1.65;100.00
28683;BME280;15862;43.062;25.626;2023-02-01T05:04:13;100185.16;;;1.51;100.00
28683;BME280;15862;43.062;25.626;2023-02-01T05:06:38;100182.28;;;1.36;100.00
28683;BME280;15862;43.062;25.626;2023-02-01T05:09:04;100195.94;;;1.34;100.00
28683;BME280;15862;43.062;25.626;2023-02-01T05:11:29;100188.66;;;1.22;100.00
28683;BME280;15862;43.062;25.626;2023-02-01T05:14:13;100190.28;;;0.98;100.00
28683;BME280;15862;43.062;25.626;2023-02-01T05:16:38;100199.03;;;0.88;100.00
28683;BME280;15862;43.062;25.626;2023-02-01T05:19:04;100194.81;;;0.89;100.00
28683;BME280;15862;43.062;25.626;2023-02-01T05:21:29;100202.47;;;0.87;100.00
28683;BME280;15862;43.062;25.626;2023-02-01T05:23:55;100208.78;;;0.74;100.00
28683;BME280;15862;43.062;25.626;2023-02-01T05:26:36;100211.66;;;0.64;100.00
28683;BME280;15862;43.062;25.626;2023-02-01T05:29:02;100207.91;;;0.47;100.00
28683;BME280;15862;43.062;25.626;2023-02-01T05:31:28;100210.72;;;0.38;100.00
28683;BME280;15862;43.062;25.626;2023-02-01T05:33:53;100220.25;;;0.30;100.00
28683;BME280;15862;43.062;25.626;2023-02-01T05:36:19;100217.63;;;0.33;100.00
28683;BME280;15862;43.062;25.626;2023-02-01T05:38:44;100227.16;;;0.25;100.00
28683;BME280;15862;43.062;25.626;2023-02-01T05:41:09;100212.16;;;0.16;100.00
28683;BME280;15862;43.062;25.626;2023-02-01T05:43:35;100236.44;;;0.26;100.00
28683;BME280;15862;43.062;25.626;2023-02-01T05:46:01;100233.13;;;0.24;100.00
28683;BME280;15862;43.062;25.626;2023-02-01T05:48:26;100230.75;;;0.18;100.00
28683;BME280;15862;43.062;25.626;2023-02-01T05:50:52;100236.66;;;0.18;100.00
28683;BME280;15862;43.062;25.626;2023-02-01T05:53:17;100239.44;;;0.09;100.00
28683;BME280;15862;43.062;25.626;2023-02-01T05:55:43;100234.66;;;-0.01;100.00
28683;BME280;15862;43.062;25.626;2023-02-01T05:58:08;100253.13;;;0.04;100.00
28683;BME280;15862;43.062;25.626;2023-02-01T06:00:34;100256.47;;;0.06;100.00
28683;BME280;15862;43.062;25.626;2023-02-01T06:02:59;100249.88;;;-0.01;100.00
28683;BME280;15862;43.062;25.626;2023-02-01T06:05:25;100254.09;;;-0.02;100.00
28683;BME280;15862;43.062;25.626;2023-02-01T06:07:51;100253.00;;;0.08;100.00
28683;BME280;15862;43.062;25.626;2023-02-01T06:10:17;100253.28;;;-0.02;100.00
28683;BME280;15862;43.062;25.626;2023-02-01T06:12:43;100255.03;;;-0.04;100.00
28683;BME280;15862;43.062;25.626;2023-02-01T06:15:10;100261.72;;;0.00;100.00
28683;BME280;15862;43.062;25.626;2023-02-01T06:17:36;100260.75;;;0.04;100.00
28683;BME280;15862;43.062;25.626;2023-02-01T06:20:02;100267.38;;;0.08;100.00
28683;BME280;15862;43.062;25.626;2023-02-01T06:22:28;100273.22;;;0.13;100.00
28683;BME280;15862;43.062;25.626;2023-02-01T06:24:53;100273.88;;;0.19;100.00
28683;BME280;15862;43.062;25.626;2023-02-01T06:27:19;100272.81;;;0.26;100.00
28683;BME280;15862;43.062;25.626;2023-02-01T06:29:44;100264.06;;;0.38;100.00
28683;BME280;15862;43.062;25.626;2023-02-01T06:32:10;100288.78;;;1.19;100.00
28683;BME280;15862;43.062;25.626;2023-02-01T06:34:35;100307.16;;;2.08;100.00
28683;BME280;15862;43.062;25.626;2023-02-01T06:37:02;100285.09;;;2.78;100.00
28683;BME280;15862;43.062;25.626;2023-02-01T06:39:28;100270.81;;;3.18;100.00
28683;BME280;15862;43.062;25.626;2023-02-01T06:41:53;100249.63;;;2.95;100.00
28683;BME280;15862;43.062;25.626;2023-02-01T06:44:19;100225.09;;;2.70;100.00
28683;BME280;15862;43.062;25.626;2023-02-01T06:46:44;100245.88;;;2.82;100.00
28683;BME280;15862;43.062;25.626;2023-02-01T06:49:10;100241.09;;;2.73;100.00
28683;BME280;15862;43.062;25.626;2023-02-01T06:51:35;100244.69;;;2.91;100.00
28683;BME280;15862;43.062;25.626;2023-02-01T06:54:01;100240.91;;;3.01;100.00
28683;BME280;15862;43.062;25.626;2023-02-01T06:56:27;100235.03;;;3.20;100.00
28683;BME280;15862;43.062;25.626;2023-02-01T06:58:52;100246.59;;;3.50;100.00
28683;BME280;15862;43.062;25.626;2023-02-01T07:01:18;100240.25;;;3.60;100.00
28683;BME280;15862;43.062;25.626;2023-02-01T07:03:47;100234.06;;;3.65;100.00
28683;BME280;15862;43.062;25.626;2023-02-01T07:06:14;100219.53;;;3.46;100.00
28683;BME280;15862;43.062;25.626;2023-02-01T07:08:39;100240.22;;;3.40;100.00
28683;BME280;15862;43.062;25.626;2023-02-01T07:11:07;100236.06;;;3.37;100.00
28683;BME280;15862;43.062;25.626;2023-02-01T07:13:33;100238.19;;;3.48;100.00
28683;BME280;15862;43.062;25.626;2023-02-01T07:16:00;100232.13;;;3.50;100.00
28683;BME280;15862;43.062;25.626;2023-02-01T07:18:27;100246.03;;;3.84;100.00
28683;BME280;15862;43.062;25.626;2023-02-01T07:20:53;100258.19;;;3.99;100.00
28683;BME280;15862;43.062;25.626;2023-02-01T07:23:19;100248.59;;;4.24;100.00
28683;BME280;15862;43.062;25.626;2023-02-01T07:25:45;100240.94;;;4.43;100.00
28683;BME280;15862;43.062;25.626;2023-02-01T07:28:11;100243.84;;;4.73;100.00
28683;BME280;15862;43.062;25.626;2023-02-01T07:30:36;100242.94;;;4.93;100.00
28683;BME280;15862;43.062;25.626;2023-02-01T07:33:02;100230.88;;;4.95;100.00
28683;BME280;15862;43.062;25.626;2023-02-01T07:35:28;100250.81;;;5.07;100.00
28683;BME280;15862;43.062;25.626;2023-02-01T07:37:53;100224.72;;;5.17;100.00
28683;BME280;15862;43.062;25.626;2023-02-01T07:40:19;100249.75;;;5.29;100.00
28683;BME280;15862;43.062;25.626;2023-02-01T07:42:48;100244.16;;;5.56;99.72
28683;BME280;15862;43.062;25.626;2023-02-01T07:45:13;100245.63;;;5.79;99.65
28683;BME280;15862;43.062;25.626;2023-02-01T07:47:40;100233.94;;;5.90;96.46
28683;BME280;15862;43.062;25.626;2023-02-01T07:50:06;100240.97;;;6.04;95.39
28683;BME280;15862;43.062;25.626;2023-02-01T07:52:31;100237.78;;;6.15;97.90
28683;BME280;15862;43.062;25.626;2023-02-01T07:54:57;100238.47;;;6.19;96.00
28683;BME280;15862;43.062;25.626;2023-02-01T07:57:22;100238.59;;;6.33;92.12
28683;BME280;15862;43.062;25.626;2023-02-01T07:59:47;100246.94;;;6.53;89.85
28683;BME280;15862;43.062;25.626;2023-02-01T08:02:31;100231.75;;;7.12;87.64
28683;BME280;15862;43.062;25.626;2023-02-01T08:04:57;100229.09;;;7.13;83.72
28683;BME280;15862;43.062;25.626;2023-02-01T08:07:22;100229.00;;;7.30;86.73
28683;BME280;15862;43.062;25.626;2023-02-01T08:09:48;100225.75;;;7.42;82.02
28683;BME280;15862;43.062;25.626;2023-02-01T08:12:13;100225.34;;;9.06;72.08
28683;BME280;15862;43.062;25.626;2023-02-01T08:14:38;100215.53;;;9.89;66.28
28683;BME280;15862;43.062;25.626;2023-02-01T08:17:06;100212.81;;;11.96;54.85
28683;BME280;15862;43.062;25.626;2023-02-01T08:19:31;100217.63;;;12.90;50.51
28683;BME280;15862;43.062;25.626;2023-02-01T08:21:57;100224.94;;;12.63;50.22
28683;BME280;15862;43.062;25.626;2023-02-01T08:24:24;100225.34;;;13.33;49.98
28683;BME280;15862;43.062;25.626;2023-02-01T08:26:50;100228.06;;;13.21;47.52
28683;BME280;15862;43.062;25.626;2023-02-01T08:29:15;100226.75;;;11.83;51.21
28683;BME280;15862;43.062;25.626;2023-02-01T08:31:40;100238.50;;;12.10;50.97
28683;BME280;15862;43.062;25.626;2023-02-01T08:34:08;100227.72;;;13.36;46.79
28683;BME280;15862;43.062;25.626;2023-02-01T08:36:34;100235.88;;;14.95;43.31
28683;BME280;15862;43.062;25.626;2023-02-01T08:39:00;100233.16;;;14.37;44.18
28683;BME280;15862;43.062;25.626;2023-02-01T08:41:28;100241.44;;;12.95;46.69
28683;BME280;15862;43.062;25.626;2023-02-01T08:43:54;100238.59;;;11.28;50.03
28683;BME280;15862;43.062;25.626;2023-02-01T08:46:21;100226.25;;;11.31;52.01
28683;BME280;15862;43.062;25.626;2023-02-01T08:48:47;100236.44;;;10.86;53.44
28683;BME280;15862;43.062;25.626;2023-02-01T08:51:14;100227.38;;;10.31;55.14
28683;BME280;15862;43.062;25.626;2023-02-01T08:53:40;100244.72;;;10.41;57.26
28683;BME280;15862;43.062;25.626;2023-02-01T08:56:07;100245.78;;;9.88;57.90
28683;BME280;15862;43.062;25.626;2023-02-01T08:58:32;100224.16;;;8.97;60.59
28683;BME280;15862;43.062;25.626;2023-02-01T09:01:06;100217.88;;;8.04;68.84
28683;BME280;15862;43.062;25.626;2023-02-01T09:03:32;100229.78;;;7.77;74.48
28683;BME280;15862;43.062;25.626;2023-02-01T09:06:04;100233.66;;;7.84;76.69
28683;BME280;15862;43.062;25.626;2023-02-01T09:08:30;100241.97;;;7.73;79.25
28683;BME280;15862;43.062;25.626;2023-02-01T09:11:07;100230.69;;;7.76;79.06
28683;BME280;15862;43.062;25.626;2023-02-01T09:13:33;100228.94;;;7.76;79.88
28683;BME280;15862;43.062;25.626;2023-02-01T09:16:00;100230.50;;;8.08;79.94
28683;BME280;15862;43.062;25.626;2023-02-01T09:18:26;100232.84;;;7.68;78.70
28683;BME280;15862;43.062;25.626;2023-02-01T09:20:51;100233.22;;;7.62;77.79
28683;BME280;15862;43.062;25.626;2023-02-01T09:23:17;100235.28;;;7.85;80.02
28683;BME280;15862;43.062;25.626;2023-02-01T09:25:45;100223.69;;;7.78;80.58
28683;BME280;15862;43.062;25.626;2023-02-01T09:28:11;100222.41;;;7.85;80.45
28683;BME280;15862;43.062;25.626;2023-02-01T09:30:37;100222.13;;;8.05;80.89
28683;BME280;15862;43.062;25.626;2023-02-01T09:33:03;100215.47;;;8.01;77.77
28683;BME280;15862;43.062;25.626;2023-02-01T09:35:28;100215.69;;;8.12;74.65
28683;BME280;15862;43.062;25.626;2023-02-01T09:37:54;100214.63;;;8.16;73.22
28683;BME280;15862;43.062;25.626;2023-02-01T09:40:20;100216.13;;;8.20;75.40
28683;BME280;15862;43.062;25.626;2023-02-01T09:45:49;100191.28;;;8.60;71.32
28683;BME280;15862;43.062;25.626;2023-02-01T09:48:21;100182.03;;;8.98;67.45
28683;BME280;15862;43.062;25.626;2023-02-01T09:50:53;100192.69;;;9.59;61.04
28683;BME280;15862;43.062;25.626;2023-02-01T09:53:40;100186.66;;;10.59;59.28
28683;BME280;15862;43.062;25.626;2023-02-01T09:56:13;100185.25;;;13.58;49.16
28683;BME280;15862;43.062;25.626;2023-02-01T09:58:52;100182.13;;;15.14;45.26
28683;BME280;15862;43.062;25.626;2023-02-01T10:01:22;100173.00;;;15.29;43.48
28683;BME280;15862;43.062;25.626;2023-02-01T10:03:49;100163.72;;;13.15;44.82
28683;BME280;15862;43.062;25.626;2023-02-01T10:09:23;100154.97;;;11.74;52.76
28683;BME280;15862;43.062;25.626;2023-02-01T10:26:25;100124.19;;;17.49;37.85
28683;BME280;15862;43.062;25.626;2023-02-01T10:28:56;100127.78;;;15.30;39.74
28683;BME280;15862;43.062;25.626;2023-02-01T10:31:24;100116.19;;;14.95;41.01
28683;BME280;15862;43.062;25.626;2023-02-01T10:33:56;100099.66;;;14.38;41.83
28683;BME280;15862;43.062;25.626;2023-02-01T10:36:29;100099.13;;;12.37;46.45
28683;BME280;15862;43.062;25.626;2023-02-01T10:38:58;100105.16;;;13.01;47.26
28683;BME280;15862;43.062;25.626;2023-02-01T10:41:31;100087.69;;;13.14;45.60
28683;BME280;15862;43.062;25.626;2023-02-01T10:43:59;100095.94;;;15.74;42.05
28683;BME280;15862;43.062;25.626;2023-02-01T10:46:25;100081.00;;;17.10;38.66
28683;BME280;15862;43.062;25.626;2023-02-01T10:48:55;100091.59;;;18.11;37.23
28683;BME280;15862;43.062;25.626;2023-02-01T10:51:24;100083.16;;;19.55;33.92
28683;BME280;15862;43.062;25.626;2023-02-01T10:54:03;100070.19;;;17.82;34.53
28683;BME280;15862;43.062;25.626;2023-02-01T10:56:37;100059.53;;;18.01;36.00
28683;BME280;15862;43.062;25.626;2023-02-01T10:59:13;100061.00;;;18.94;34.85
28683;BME280;15862;43.062;25.626;2023-02-01T11:01:41;100071.69;;;16.73;36.28
28683;BME280;15862;43.062;25.626;2023-02-01T11:04:10;100071.06;;;14.38;40.25
28683;BME280;15862;43.062;25.626;2023-02-01T11:06:43;100064.63;;;13.21;42.72
28683;BME280;15862;43.062;25.626;2023-02-01T11:16:47;100042.97;;;12.91;45.32
28683;BME280;15862;43.062;25.626;2023-02-01T11:19:15;100037.03;;;12.99;44.48
28683;BME280;15862;43.062;25.626;2023-02-01T11:21:41;100028.25;;;12.80;45.03
28683;BME280;15862;43.062;25.626;2023-02-01T11:26:45;100015.81;;;11.88;46.52
28683;BME280;15862;43.062;25.626;2023-02-01T11:29:13;100026.53;;;11.84;48.02
28683;BME280;15862;43.062;25.626;2023-02-01T11:31:42;99985.81;;;10.97;48.51
28683;BME280;15862;43.062;25.626;2023-02-01T11:34:15;99999.50;;;12.41;48.12
28683;BME280;15862;43.062;25.626;2023-02-01T11:36:42;100005.75;;;13.92;42.19
28683;BME280;15862;43.062;25.626;2023-02-01T11:39:21;99994.03;;;15.12;41.53
28683;BME280;15862;43.062;25.626;2023-02-01T11:44:29;99984.97;;;15.54;38.95
28683;BME280;15862;43.062;25.626;2023-02-01T11:46:55;99983.06;;;15.83;37.52
28683;BME280;15862;43.062;25.626;2023-02-01T11:49:26;99989.41;;;15.25;39.52
28683;BME280;15862;43.062;25.626;2023-02-01T11:59:59;99987.53;;;12.07;44.33
28683;BME280;15862;43.062;25.626;2023-02-01T12:02:49;99981.66;;;12.16;45.10
28683;BME280;15862;43.062;25.626;2023-02-01T12:16:11;99963.53;;;9.78;50.34
28683;BME280;15862;43.062;25.626;2023-02-01T12:35:13;99976.00;;;14.45;40.97
28683;BME280;15862;43.062;25.626;2023-02-01T12:38:27;99962.22;;;13.45;42.25
28683;BME280;15862;43.062;25.626;2023-02-01T12:43:25;99956.63;;;11.62;47.47
28683;BME280;15862;43.062;25.626;2023-02-01T12:45:58;99962.63;;;11.41;46.64
28683;BME280;15862;43.062;25.626;2023-02-01T12:48:40;99955.00;;;11.05;47.11
28683;BME280;15862;43.062;25.626;2023-02-01T12:51:20;99954.84;;;10.84;48.09
28683;BME280;15862;43.062;25.626;2023-02-01T12:58:59;99965.28;;;10.25;50.53
28683;BME280;15862;43.062;25.626;2023-02-01T13:01:34;99959.88;;;10.75;49.70
28683;BME280;15862;43.062;25.626;2023-02-01T13:04:05;99961.63;;;11.09;48.88
28683;BME280;15862;43.062;25.626;2023-02-01T13:06:49;99963.59;;;11.61;48.00
28683;BME280;15862;43.062;25.626;2023-02-01T13:11:57;99959.06;;;12.18;47.04
28683;BME280;15862;43.062;25.626;2023-02-01T13:16:52;99962.75;;;11.05;48.87
28683;BME280;15862;43.062;25.626;2023-02-01T13:22:10;99956.44;;;10.17;52.05
28683;BME280;15862;43.062;25.626;2023-02-01T13:24:45;99951.81;;;10.09;52.87
28683;BME280;15862;43.062;25.626;2023-02-01T13:27:13;99964.53;;;10.00;52.88
28683;BME280;15862;43.062;25.626;2023-02-01T13:29:49;99966.59;;;9.83;52.51
28683;BME280;15862;43.062;25.626;2023-02-01T13:40:39;99950.75;;;9.64;54.57
28683;BME280;15862;43.062;25.626;2023-02-01T13:43:28;99966.78;;;9.92;54.96
28683;BME280;15862;43.062;25.626;2023-02-01T13:45:56;99963.28;;;10.05;54.88
28683;BME280;15862;43.062;25.626;2023-02-01T13:48:29;99951.53;;;9.89;53.51
28683;BME280;15862;43.062;25.626;2023-02-01T13:50:59;99972.19;;;10.01;53.88
28683;BME280;15862;43.062;25.626;2023-02-01T13:53:35;99961.44;;;10.07;54.92
28683;BME280;15862;43.062;25.626;2023-02-01T13:56:17;99943.69;;;10.03;54.39
28683;BME280;15862;43.062;25.626;2023-02-01T13:58:44;99951.81;;;10.09;54.66
28683;BME280;15862;43.062;25.626;2023-02-01T14:03:54;99964.72;;;10.09;54.38
28683;BME280;15862;43.062;25.626;2023-02-01T14:19:21;99943.34;;;9.34;56.70
28683;BME280;15862;43.062;25.626;2023-02-01T14:21:52;99960.69;;;9.32;57.96
28683;BME280;15862;43.062;25.626;2023-02-01T14:24:25;99956.16;;;9.11;57.24
28683;BME280;15862;43.062;25.626;2023-02-01T14:26:57;99942.53;;;8.97;57.31
28683;BME280;15862;43.062;25.626;2023-02-01T14:29:43;99966.72;;;8.94;57.33
28683;BME280;15862;43.062;25.626;2023-02-01T14:32:44;99969.72;;;8.88;57.02
28683;BME280;15862;43.062;25.626;2023-02-01T14:35:25;99988.88;;;8.84;56.78
28683;BME280;15862;43.062;25.626;2023-02-01T14:37:53;99968.88;;;8.75;54.97
28683;BME280;15862;43.062;25.626;2023-02-01T14:40:26;99976.72;;;8.74;55.36
28683;BME280;15862;43.062;25.626;2023-02-01T14:42:53;99980.81;;;8.76;55.60
28683;BME280;15862;43.062;25.626;2023-02-01T15:01:18;99999.19;;;8.32;58.11
28683;BME280;15862;43.062;25.626;2023-02-01T15:07:07;100004.19;;;8.07;60.39
28683;BME280;15862;43.062;25.626;2023-02-01T15:09:38;99990.63;;;7.91;61.67
28683;BME280;15862;43.062;25.626;2023-02-01T15:12:16;100007.91;;;7.89;63.04
28683;BME280;15862;43.062;25.626;2023-02-01T15:15:12;100007.91;;;7.75;64.10
28683;BME280;15862;43.062;25.626;2023-02-01T15:17:38;100016.25;;;7.64;65.38
28683;BME280;15862;43.062;25.626;2023-02-01T15:20:13;100017.44;;;7.59;66.14
28683;BME280;15862;43.062;25.626;2023-02-01T15:22:40;100024.78;;;7.51;68.00
28683;BME280;15862;43.062;25.626;2023-02-01T15:25:23;100021.13;;;7.41;68.11
28683;BME280;15862;43.062;25.626;2023-02-01T15:27:49;100024.28;;;7.31;66.52
28683;BME280;15862;43.062;25.626;2023-02-01T15:30:19;100019.09;;;7.32;65.99
28683;BME280;15862;43.062;25.626;2023-02-01T15:32:45;100016.22;;;7.23;67.17